Time;durP1;ratioP1;P1;durP2;ratioP2;P2;SDS_P1;SDS_P2;PMS_P1;PMS_P2;Temp;Humidity;BMP_temperature;BMP_pressure;BME280_temperature;BME280_humidity;BME280_pressure;Samples;Min_cycle;Max_cycle;Signal;HPM_P1;HPM_P2
2023/12/07 00:02:13;;;;;;;;;;;;;;;;;;5049229;28;19975;-62
2023/12/07 00:04:38;;;;;;;;;;;;;;;;;;5048980;28;19939;-59
2023/12/07 00:07:04;;;;;;;;;;;;;;;;;;5048874;28;20690;-62
2023/12/07 00:09:30;;;;;;;;;;;;;;;;;;5077072;22;20389;-53
2023/12/07 00:11:56;;;;;;;;;;;;;;;;;;5070257;28;19947;-49
2023/12/07 00:14:22;;;;;;;;;;;;;;;;;;5070929;28;20312;-50
2023/12/07 00:16:49;;;;;;;;;;;;;;;;;;5052960;28;20374;-51
2023/12/07 00:19:14;;;;;;;;;;;;;;;;;;5070969;28;20377;-50
2023/12/07 00:21:40;;;;;;;;;;;;;;;;;;5052766;28;20002;-50
2023/12/07 00:24:06;;;;;;;;;;;;;;;;;;5070946;28;19904;-49
2023/12/07 00:26:32;;;;;;;;;;;;;;;;;;5070785;28;20369;-51
2023/12/07 00:28:58;;;;;;;;;;;;;;;;;;5070566;28;19954;-50
2023/12/07 00:31:24;;;;;;;;;;;;;;;;;;5070676;28;19910;-51
2023/12/07 00:33:50;;;;;;;;;;;;;;;;;;5070774;28;19911;-51
2023/12/07 00:36:16;;;;;;;;;;;;;;;;;;5070689;28;19916;-48
2023/12/07 00:38:42;;;;;;;;;;;;;;;;;;5052623;28;19905;-53
2023/12/07 00:41:08;;;;;;;;;;;;;;;;;;5070232;28;19908;-49
2023/12/07 00:43:34;;;;;;;;;;;;;;;;;;5070404;28;20263;-51
2023/12/07 00:45:59;;;;;;;;;;;;;;;;;;5070563;28;19904;-53
2023/12/07 00:48:25;;;;;;;;;;;;;;;;;;5070533;28;20429;-55
2023/12/07 00:50:51;;;;;;;;;;;;;;;;;;5070336;28;19994;-53
2023/12/07 00:53:17;;;;;;;;;;;;;;;;;;5052860;28;20095;-47
2023/12/07 00:55:43;;;;;;;;;;;;;;;;;;5070552;28;19904;-51
2023/12/07 00:58:09;;;;;;;;;;;;;;;;;;5052183;28;20296;-50
2023/12/07 01:00:36;;;;;;;;;;;;;;;;;;5070201;28;19977;-48
2023/12/07 01:03:02;;;;;;;;;;;;;;;;;;5070612;28;20328;-49
2023/12/07 01:05:28;;;;;;;;;;;;;;;;;;5070543;28;19916;-52
2023/12/07 01:07:54;;;;;;;;;;;;;;;;;;5070613;28;20007;-51
2023/12/07 01:10:20;;;;;;;;;;;;;;;;;;5070434;28;19918;-49
2023/12/07 01:12:46;;;;;;;;;;;;;;;;;;5052789;28;19905;-49
2023/12/07 01:15:12;;;;;;;;;;;;;;;;;;5070261;28;19904;-52
2023/12/07 01:17:38;;;;;;;;;;;;;;;;;;5070269;28;19916;-49
2023/12/07 01:20:05;;;;;;;;;;;;;;;;;;5051911;28;19904;-49
2023/12/07 01:22:31;;;;;;;;;;;;;;;;;;5070275;28;19904;-52
2023/12/07 01:24:56;;;;;;;;;;;;;;;;;;5070396;28;19931;-49
2023/12/07 01:27:23;;;;;;;;;;;;;;;;;;5052153;28;19919;-54
2023/12/07 01:29:48;;;;;;;;;;;;;;;;;;5069858;28;20348;-52
2023/12/07 01:32:15;;;;;;;;;;;;;;;;;;5069933;28;19908;-52
2023/12/07 01:34:41;;;;;;;;;;;;;;;;;;5069978;28;20385;-49
2023/12/07 01:37:07;;;;;;;;;;;;;;;;;;5069909;28;19916;-52
2023/12/07 01:39:33;;;;;;;;;;;;;;;;;;5052261;28;19904;-50
2023/12/07 01:41:59;;;;;;;;;;;;;;;;;;5069809;28;19904;-53
2023/12/07 01:44:27;;;;;;;;;;;;;;;;;;5068980;28;19904;-55
2023/12/07 01:46:53;;;;;;;;;;;;;;;;;;5066059;28;19971;-51
2023/12/07 01:49:19;;;;;;;;;;;;;;;;;;5070011;28;20007;-56
2023/12/07 01:51:45;;;;;;;;;;;;;;;;;;5069620;28;19911;-46
2023/12/07 01:54:11;;;;;;;;;;;;;;;;;;5061656;28;19908;-48
2023/12/07 01:56:36;;;;;;;;;;;;;;;;;;5051810;28;19951;-51
2023/12/07 01:59:03;;;;;;;;;;;;;;;;;;5069608;28;20378;-48
2023/12/07 02:01:29;;;;;;;;;;;;;;;;;;5069526;28;19908;-48
2023/12/07 02:03:55;;;;;;;;;;;;;;;;;;5069751;28;19930;-49
2023/12/07 02:06:20;;;;;;;;;;;;;;;;;;5069689;28;19904;-52
2023/12/07 02:08:46;;;;;;;;;;;;;;;;;;5072796;28;20477;-45
2023/12/07 02:11:12;;;;;;;;;;;;;;;;;;5073023;28;19912;-52
2023/12/07 02:13:38;;;;;;;;;;;;;;;;;;5073063;28;19908;-53
2023/12/07 02:16:04;;;;;;;;;;;;;;;;;;5073237;28;19950;-49
2023/12/07 02:18:30;;;;;;;;;;;;;;;;;;5072998;28;19931;-53
2023/12/07 02:20:56;;;;;;;;;;;;;;;;;;5072822;28;20370;-54
2023/12/07 02:23:22;;;;;;;;;;;;;;;;;;5073352;28;19904;-51
2023/12/07 02:25:47;;;;;;;;;;;;;;;;;;5054979;28;19904;-47
2023/12/07 02:28:13;;;;;;;;;;;;;;;;;;5055077;28;19904;-49
2023/12/07 02:30:39;;;;;;;;;;;;;;;;;;5054950;28;19908;-49
2023/12/07 02:33:05;;;;;;;;;;;;;;;;;;5072946;28;20418;-49
2023/12/07 02:35:31;;;;;;;;;;;;;;;;;;5072892;28;20384;-46
2023/12/07 02:37:57;;;;;;;;;;;;;;;;;;5054981;28;20144;-53
2023/12/07 02:40:23;;;;;;;;;;;;;;;;;;5072567;28;19950;-49
2023/12/07 02:42:49;;;;;;;;;;;;;;;;;;5054968;28;19912;-48
2023/12/07 02:45:15;;;;;;;;;;;;;;;;;;5072776;28;19904;-49
2023/12/07 02:47:43;;;;;;;;;;;;;;;;;;5072809;28;19936;-50
2023/12/07 02:50:09;;;;;;;;;;;;;;;;;;5054384;28;19918;-53
2023/12/07 02:52:35;;;;;;;;;;;;;;;;;;5072580;28;20425;-53
2023/12/07 02:55:01;;;;;;;;;;;;;;;;;;5072326;28;19912;-52
2023/12/07 02:57:27;;;;;;;;;;;;;;;;;;5072406;28;20302;-48
2023/12/07 02:59:53;;;;;;;;;;;;;;;;;;5072135;28;19946;-54
2023/12/07 03:02:19;;;;;;;;;;;;;;;;;;5072449;28;19905;-51
2023/12/07 03:04:44;;;;;;;;;;;;;;;;;;5065645;28;19920;-51
2023/12/07 03:07:10;;;;;;;;;;;;;;;;;;5054146;28;19904;-50
2023/12/07 03:09:36;;;;;;;;;;;;;;;;;;5072182;28;19916;-50
2023/12/07 03:12:02;;;;;;;;;;;;;;;;;;5071923;28;20336;-48
2023/12/07 03:14:28;;;;;;;;;;;;;;;;;;5072090;28;19915;-52
2023/12/07 03:16:54;;;;;;;;;;;;;;;;;;5072011;28;19905;-49
2023/12/07 03:19:20;;;;;;;;;;;;;;;;;;5070967;28;19958;-52
2023/12/07 03:21:46;;;;;;;;;;;;;;;;;;5071763;28;19944;-52
2023/12/07 03:24:11;;;;;;;;;;;;;;;;;;5072071;28;19908;-52
2023/12/07 03:26:37;;;;;;;;;;;;;;;;;;5072078;28;19936;-50
2023/12/07 03:29:03;;;;;;;;;;;;;;;;;;5071769;28;20072;-48
2023/12/07 03:31:29;;;;;;;;;;;;;;;;;;5071776;28;19904;-50
2023/12/07 03:33:55;;;;;;;;;;;;;;;;;;5072067;28;19904;-51
2023/12/07 03:36:21;;;;;;;;;;;;;;;;;;5071844;28;20431;-49
2023/12/07 03:38:47;;;;;;;;;;;;;;;;;;5053713;28;20281;-48
2023/12/07 03:41:13;;;;;;;;;;;;;;;;;;5071631;28;19912;-52
2023/12/07 03:43:39;;;;;;;;;;;;;;;;;;5053670;28;19904;-49
2023/12/07 03:46:05;;;;;;;;;;;;;;;;;;5071448;28;19904;-48
2023/12/07 03:48:31;;;;;;;;;;;;;;;;;;5071448;28;20309;-47
2023/12/07 03:50:57;;;;;;;;;;;;;;;;;;5070716;28;19908;-48
2023/12/07 03:53:23;;;;;;;;;;;;;;;;;;5071286;28;19904;-48
2023/12/07 03:55:49;;;;;;;;;;;;;;;;;;5071273;28;19911;-50
2023/12/07 03:58:14;;;;;;;;;;;;;;;;;;5071428;28;20044;-48
2023/12/07 04:00:41;;;;;;;;;;;;;;;;;;5053085;28;19905;-49
2023/12/07 04:03:07;;;;;;;;;;;;;;;;;;5071205;28;19912;-53
2023/12/07 04:05:32;;;;;;;;;;;;;;;;;;5053069;28;19991;-49
2023/12/07 04:07:58;;;;;;;;;;;;;;;;;;5071182;28;20089;-49
2023/12/07 04:10:24;;;;;;;;;;;;;;;;;;5052785;28;19959;-49
2023/12/07 04:12:52;;;;;;;;;;;;;;;;;;5070970;28;19912;-49
2023/12/07 04:15:18;;;;;;;;;;;;;;;;;;5070871;28;20313;-50
2023/12/07 04:17:44;;;;;;;;;;;;;;;;;;5070764;28;19904;-52
2023/12/07 04:20:10;;;;;;;;;;;;;;;;;;5070417;28;19936;-49
2023/12/07 04:22:35;;;;;;;;;;;;;;;;;;5070685;28;19908;-48
2023/12/07 04:25:01;;;;;;;;;;;;;;;;;;5052725;28;19904;-49
2023/12/07 04:27:27;;;;;;;;;;;;;;;;;;5052681;28;19923;-55
2023/12/07 04:29:53;;;;;;;;;;;;;;;;;;5070520;28;19908;-53
2023/12/07 04:32:19;;;;;;;;;;;;;;;;;;5052861;28;19904;-53
2023/12/07 04:34:45;;;;;;;;;;;;;;;;;;5071037;28;19912;-49
2023/12/07 04:37:11;;;;;;;;;;;;;;;;;;5070584;28;20217;-53
2023/12/07 04:39:37;;;;;;;;;;;;;;;;;;5052168;28;19935;-49
2023/12/07 04:42:03;;;;;;;;;;;;;;;;;;5070219;28;19904;-52
2023/12/07 04:44:29;;;;;;;;;;;;;;;;;;5070346;28;19999;-50
2023/12/07 04:46:55;;;;;;;;;;;;;;;;;;5070793;28;19908;-51
2023/12/07 04:49:21;;;;;;;;;;;;;;;;;;5070689;28;20314;-51
2023/12/07 04:51:46;;;;;;;;;;;;;;;;;;5071860;28;19904;-53
2023/12/07 04:54:14;;;;;;;;;;;;;;;;;;5052874;28;20334;-53
2023/12/07 04:56:40;;;;;;;;;;;;;;;;;;5071079;28;19943;-51
2023/12/07 04:59:06;;;;;;;;;;;;;;;;;;5070448;28;19962;-45
2023/12/07 05:01:32;;;;;;;;;;;;;;;;;;5070292;28;19905;-54
2023/12/07 05:03:58;;;;;;;;;;;;;;;;;;5070351;28;19920;-48
2023/12/07 05:06:24;;;;;;;;;;;;;;;;;;5070914;28;20071;-48
2023/12/07 05:08:50;;;;;;;;;;;;;;;;;;5052812;28;19912;-54
2023/12/07 05:11:16;;;;;;;;;;;;;;;;;;5071104;28;19912;-51
2023/12/07 05:13:42;;;;;;;;;;;;;;;;;;5071516;28;19904;-52
2023/12/07 05:16:08;;;;;;;;;;;;;;;;;;5072060;28;19913;-56
2023/12/07 05:18:34;;;;;;;;;;;;;;;;;;5071003;28;19931;-53
2023/12/07 05:21:00;;;;;;;;;;;;;;;;;;5069892;28;19977;-50
2023/12/07 05:23:26;;;;;;;;;;;;;;;;;;5061962;28;20330;-50
2023/12/07 05:25:54;;;;;;;;;;;;;;;;;;5070033;28;19965;-52
2023/12/07 05:28:20;;;;;;;;;;;;;;;;;;5070450;28;19904;-51
2023/12/07 05:30:46;;;;;;;;;;;;;;;;;;5069858;28;19919;-51
2023/12/07 05:33:12;;;;;;;;;;;;;;;;;;5070009;28;19983;-48
2023/12/07 05:35:37;;;;;;;;;;;;;;;;;;5070157;28;19944;-47
2023/12/07 05:38:04;;;;;;;;;;;;;;;;;;5052141;28;19904;-50
2023/12/07 05:40:30;;;;;;;;;;;;;;;;;;5069967;28;20346;-48
2023/12/07 05:42:56;;;;;;;;;;;;;;;;;;5072399;28;19911;-47
2023/12/07 05:45:22;;;;;;;;;;;;;;;;;;5056017;28;19904;-49
2023/12/07 05:47:48;;;;;;;;;;;;;;;;;;5055669;28;19911;-51
2023/12/07 05:50:14;;;;;;;;;;;;;;;;;;5073468;28;20342;-52
2023/12/07 05:52:40;;;;;;;;;;;;;;;;;;5073663;28;19909;-49
2023/12/07 05:55:06;;;;;;;;;;;;;;;;;;5055278;28;19911;-51
2023/12/07 05:57:31;;;;;;;;;;;;;;;;;;5073302;28;19947;-48
2023/12/07 05:59:57;;;;;;;;;;;;;;;;;;5073210;28;19904;-50
2023/12/07 06:02:23;;;;;;;;;;;;;;;;;;5055246;28;19911;-54
2023/12/07 06:04:49;;;;;;;;;;;;;;;;;;5073257;28;20448;-49
2023/12/07 06:07:15;;;;;;;;;;;;;;;;;;5055533;28;19958;-48
2023/12/07 06:09:41;;;;;;;;;;;;;;;;;;5087937;22;19908;-45
2023/12/07 06:12:07;;;;;;;;;;;;;;;;;;5034379;28;19963;-46
2023/12/07 06:14:33;;;;;;;;;;;;;;;;;;5053185;28;20018;-48
2023/12/07 06:16:59;;;;;;;;;;;;;;;;;;5053190;28;19911;-47
2023/12/07 06:19:25;;;;;;;;;;;;;;;;;;5052907;28;20359;-47
2023/12/07 06:21:51;;;;;;;;;;;;;;;;;;5053124;28;19912;-44
2023/12/07 06:24:16;;;;;;;;;;;;;;;;;;5053007;28;20007;-48
2023/12/07 06:26:42;;;;;;;;;;;;;;;;;;5053076;28;19991;-48
2023/12/07 06:29:08;;;;;;;;;;;;;;;;;;5034994;28;19911;-44
2023/12/07 06:31:34;;;;;;;;;;;;;;;;;;5052740;28;20428;-44
2023/12/07 06:34:00;;;;;;;;;;;;;;;;;;5052702;28;20003;-48
2023/12/07 06:36:26;;;;;;;;;;;;;;;;;;5034999;28;20021;-47
2023/12/07 06:38:52;;;;;;;;;;;;;;;;;;5052450;28;20350;-45
2023/12/07 06:41:18;;;;;;;;;;;;;;;;;;5052551;28;19905;-45
2023/12/07 06:43:44;;;;;;;;;;;;;;;;;;5034556;28;19995;-50
2023/12/07 06:46:10;;;;;;;;;;;;;;;;;;5041350;28;19905;-43
2023/12/07 06:48:36;;;;;;;;;;;;;;;;;;5041611;28;19984;-52
2023/12/07 06:51:02;;;;;;;;;;;;;;;;;;5014246;28;19913;-46
2023/12/07 06:53:28;;;;;;;;;;;;;;;;;;5022814;28;20375;-47
2023/12/07 06:55:54;;;;;;;;;;;;;;;;;;5040436;28;19916;-47
2023/12/07 06:58:20;;;;;;;;;;;;;;;;;;5045844;28;19936;-48
2023/12/07 07:00:46;;;;;;;;;;;;;;;;;;5051612;28;19912;-50
2023/12/07 07:03:12;;;;;;;;;;;;;;;;;;5032769;28;19913;-52
2023/12/07 07:05:37;;;;;;;;;;;;;;;;;;5031959;28;19909;-51
2023/12/07 07:08:03;;;;;;;;;;;;;;;;;;5031710;28;20375;-46
2023/12/07 07:10:29;;;;;;;;;;;;;;;;;;5040008;28;19913;-49
2023/12/07 07:12:55;;;;;;;;;;;;;;;;;;5050355;28;19905;-47
2023/12/07 07:15:23;;;;;;;;;;;;;;;;;;5031876;28;19924;-46
2023/12/07 07:17:48;;;;;;;;;;;;;;;;;;5014013;28;19905;-43
2023/12/07 07:20:14;;;;;;;;;;;;;;;;;;5031540;28;19916;-50
2023/12/07 07:22:40;;;;;;;;;;;;;;;;;;5031982;28;19905;-49
2023/12/07 07:25:06;;;;;;;;;;;;;;;;;;5042532;28;19970;-48
2023/12/07 07:27:33;;;;;;;;;;;;;;;;;;5029504;28;19908;-49
2023/12/07 07:29:59;;;;;;;;;;;;;;;;;;5031248;28;20294;-47
2023/12/07 07:32:25;;;;;;;;;;;;;;;;;;5044835;28;19905;-43
2023/12/07 07:34:51;;;;;;;;;;;;;;;;;;5033588;28;19905;-47
2023/12/07 07:37:18;;;;;;;;;;;;;;;;;;5051703;28;19904;-48
2023/12/07 07:39:44;;;;;;;;;;;;;;;;;;5051017;28;19911;-49
2023/12/07 07:42:10;;;;;;;;;;;;;;;;;;5051035;28;19905;-48
2023/12/07 07:44:36;;;;;;;;;;;;;;;;;;5050836;28;19912;-48
2023/12/07 07:47:02;;;;;;;;;;;;;;;;;;5048731;28;19909;-50
2023/12/07 07:49:28;;;;;;;;;;;;;;;;;;5039114;28;20275;-49
2023/12/07 07:51:54;;;;;;;;;;;;;;;;;;5028936;28;19913;-46
2023/12/07 07:54:19;;;;;;;;;;;;;;;;;;5042576;28;20341;-46
2023/12/07 07:56:45;;;;;;;;;;;;;;;;;;5033247;28;19920;-49
2023/12/07 07:59:11;;;;;;;;;;;;;;;;;;5051190;28;19909;-46
2023/12/07 08:01:37;;;;;;;;;;;;;;;;;;5050354;28;19912;-48
2023/12/07 08:04:03;;;;;;;;;;;;;;;;;;5050494;28;19908;-45
2023/12/07 08:06:29;;;;;;;;;;;;;;;;;;5032562;28;20391;-51
2023/12/07 08:08:55;;;;;;;;;;;;;;;;;;5051198;28;19908;-48
2023/12/07 08:11:21;;;;;;;;;;;;;;;;;;5050946;28;20398;-48
2023/12/07 08:13:47;;;;;;;;;;;;;;;;;;5033035;28;19905;-50
2023/12/07 08:16:13;;;;;;;;;;;;;;;;;;5050823;28;20302;-51
2023/12/07 08:18:39;;;;;;;;;;;;;;;;;;5051000;28;19909;-51
2023/12/07 08:21:08;;;;;;;;;;;;;;;;;;5050574;28;19911;-48
2023/12/07 08:23:34;;;;;;;;;;;;;;;;;;5050745;28;19920;-47
2023/12/07 08:26:00;;;;;;;;;;;;;;;;;;5050647;28;19944;-52
2023/12/07 08:28:26;;;;;;;;;;;;;;;;;;5039188;28;19929;-49
2023/12/07 08:30:51;;;;;;;;;;;;;;;;;;5029922;28;19909;-50
2023/12/07 08:33:17;;;;;;;;;;;;;;;;;;5030304;28;19905;-51
2023/12/07 08:35:43;;;;;;;;;;;;;;;;;;5030277;28;19979;-47
2023/12/07 08:38:09;;;;;;;;;;;;;;;;;;5030257;28;19912;-47
2023/12/07 08:40:35;;;;;;;;;;;;;;;;;;5030015;28;19917;-50
2023/12/07 08:43:01;;;;;;;;;;;;;;;;;;5030373;28;19999;-50
2023/12/07 08:45:27;;;;;;;;;;;;;;;;;;5029048;28;19905;-49
2023/12/07 08:47:53;;;;;;;;;;;;;;;;;;5030230;28;19916;-49
2023/12/07 08:50:19;;;;;;;;;;;;;;;;;;5030253;28;20165;-51
2023/12/07 08:52:45;;;;;;;;;;;;;;;;;;5028370;28;19909;-51
2023/12/07 08:55:11;;;;;;;;;;;;;;;;;;5030253;28;19951;-48
2023/12/07 08:57:37;;;;;;;;;;;;;;;;;;5030236;28;19913;-50
2023/12/07 09:00:03;;;;;;;;;;;;;;;;;;5029831;28;19971;-48
2023/12/07 09:02:29;;;;;;;;;;;;;;;;;;5030197;28;19965;-49
2023/12/07 09:04:55;;;;;;;;;;;;;;;;;;5029765;28;20359;-47
2023/12/07 09:07:20;;;;;;;;;;;;;;;;;;5012038;28;19904;-47
2023/12/07 09:09:47;;;;;;;;;;;;;;;;;;5029843;28;19916;-46
2023/12/07 09:12:14;;;;;;;;;;;;;;;;;;5029977;28;20397;-48
2023/12/07 09:14:40;;;;;;;;;;;;;;;;;;5030239;28;19905;-45
2023/12/07 09:17:05;;;;;;;;;;;;;;;;;;5031079;28;19905;-49
2023/12/07 09:19:31;;;;;;;;;;;;;;;;;;5034485;28;19986;-47
2023/12/07 09:21:58;;;;;;;;;;;;;;;;;;5034235;28;19909;-52
2023/12/07 09:24:24;;;;;;;;;;;;;;;;;;5033857;28;20045;-44
2023/12/07 09:26:50;;;;;;;;;;;;;;;;;;5033863;28;19933;-48
2023/12/07 09:29:16;;;;;;;;;;;;;;;;;;5033934;28;20286;-48
2023/12/07 09:31:42;;;;;;;;;;;;;;;;;;5033733;28;19913;-47
2023/12/07 09:34:08;;;;;;;;;;;;;;;;;;5033903;28;19912;-50
2023/12/07 09:36:34;;;;;;;;;;;;;;;;;;5033834;28;19905;-49
2023/12/07 09:39:00;;;;;;;;;;;;;;;;;;5033683;28;19962;-48
2023/12/07 09:41:26;;;;;;;;;;;;;;;;;;5033368;28;19912;-47
2023/12/07 09:43:52;;;;;;;;;;;;;;;;;;5033653;28;20019;-51
2023/12/07 09:46:18;;;;;;;;;;;;;;;;;;5033591;28;19905;-50
2023/12/07 09:48:45;;;;;;;;;;;;;;;;;;5033525;28;19991;-45
2023/12/07 09:51:11;;;;;;;;;;;;;;;;;;5015472;28;19915;-46
2023/12/07 09:53:37;;;;;;;;;;;;;;;;;;5033393;28;19905;-48
2023/12/07 09:56:03;;;;;;;;;;;;;;;;;;5033095;28;19905;-44
2023/12/07 09:58:29;;;;;;;;;;;;;;;;;;5033587;28;19912;-45
2023/12/07 10:00:55;;;;;;;;;;;;;;;;;;5026848;28;19939;-51
2023/12/07 10:03:22;;;;;;;;;;;;;;;;;;5033261;28;20508;-48
2023/12/07 10:05:48;;;;;;;;;;;;;;;;;;5033329;28;20010;-46
2023/12/07 10:08:14;;;;;;;;;;;;;;;;;;5036696;28;20478;-51
2023/12/07 10:10:40;;;;;;;;;;;;;;;;;;5052598;28;19912;-50
2023/12/07 10:13:05;;;;;;;;;;;;;;;;;;5053324;28;20458;-45
2023/12/07 10:15:31;;;;;;;;;;;;;;;;;;5046684;28;19999;-48
2023/12/07 10:17:58;;;;;;;;;;;;;;;;;;5040291;28;19940;-44
2023/12/07 10:20:24;;;;;;;;;;;;;;;;;;5032024;28;19905;-50
2023/12/07 10:22:50;;;;;;;;;;;;;;;;;;5032821;28;19916;-44
2023/12/07 10:25:16;;;;;;;;;;;;;;;;;;5032106;28;19959;-46
2023/12/07 10:27:42;;;;;;;;;;;;;;;;;;5032020;28;20035;-50
2023/12/07 10:30:08;;;;;;;;;;;;;;;;;;5030990;28;19921;-45
2023/12/07 10:32:34;;;;;;;;;;;;;;;;;;5032810;28;19905;-44
2023/12/07 10:35:01;;;;;;;;;;;;;;;;;;5032939;28;19905;-44
2023/12/07 10:37:27;;;;;;;;;;;;;;;;;;5032632;28;19905;-48
2023/12/07 10:39:52;;;;;;;;;;;;;;;;;;5032514;28;20244;-48
2023/12/07 10:42:18;;;;;;;;;;;;;;;;;;5032602;28;19905;-44
2023/12/07 10:44:44;;;;;;;;;;;;;;;;;;5032415;28;19928;-47
2023/12/07 10:47:10;;;;;;;;;;;;;;;;;;5032512;28;19996;-48
2023/12/07 10:49:36;;;;;;;;;;;;;;;;;;5031120;28;20295;-50
2023/12/07 10:52:02;;;;;;;;;;;;;;;;;;5032369;28;19913;-46
2023/12/07 10:54:28;;;;;;;;;;;;;;;;;;5035438;28;19940;-46
2023/12/07 10:56:54;;;;;;;;;;;;;;;;;;5034342;28;19909;-47
2023/12/07 10:59:20;;;;;;;;;;;;;;;;;;5052318;28;19911;-44
2023/12/07 11:01:46;;;;;;;;;;;;;;;;;;5052311;28;19905;-50
2023/12/07 11:04:12;;;;;;;;;;;;;;;;;;5052543;28;19909;-47
2023/12/07 11:06:38;;;;;;;;;;;;;;;;;;5052222;28;19909;-51
2023/12/07 11:09:04;;;;;;;;;;;;;;;;;;5052068;28;19904;-51
2023/12/07 11:11:30;;;;;;;;;;;;;;;;;;5051474;28;19912;-50
2023/12/07 11:13:56;;;;;;;;;;;;;;;;;;5033874;28;19912;-49
2023/12/07 11:16:22;;;;;;;;;;;;;;;;;;5051724;28;19908;-46
2023/12/07 11:18:48;;;;;;;;;;;;;;;;;;5039778;28;19955;-45
2023/12/07 11:21:14;;;;;;;;;;;;;;;;;;5031416;28;20379;-58
2023/12/07 11:23:40;;;;;;;;;;;;;;;;;;5031217;28;19912;-50
2023/12/07 11:26:06;;;;;;;;;;;;;;;;;;5032033;28;19905;-53
2023/12/07 11:28:32;;;;;;;;;;;;;;;;;;5031472;28;19948;-56
2023/12/07 11:30:58;;;;;;;;;;;;;;;;;;5030564;28;19909;-53
2023/12/07 11:33:24;;;;;;;;;;;;;;;;;;5030756;28;20337;-50
2023/12/07 11:35:50;;;;;;;;;;;;;;;;;;5031093;28;19952;-47
2023/12/07 11:38:19;;;;;;;;;;;;;;;;;;5031264;28;20358;-50
2023/12/07 11:40:44;;;;;;;;;;;;;;;;;;5030856;28;19963;-53
2023/12/07 11:43:10;;;;;;;;;;;;;;;;;;5047908;28;19905;-51
2023/12/07 11:45:36;;;;;;;;;;;;;;;;;;5032924;28;20333;-46
2023/12/07 11:48:02;;;;;;;;;;;;;;;;;;5050911;28;19946;-48
2023/12/07 11:50:28;;;;;;;;;;;;;;;;;;5050295;28;19920;-53
2023/12/07 11:52:54;;;;;;;;;;;;;;;;;;5051225;28;19909;-50
2023/12/07 11:55:20;;;;;;;;;;;;;;;;;;5046666;28;19912;-53
2023/12/07 11:57:46;;;;;;;;;;;;;;;;;;5031057;28;19912;-49
2023/12/07 12:00:12;;;;;;;;;;;;;;;;;;5030792;28;19987;-51
2023/12/07 12:02:38;;;;;;;;;;;;;;;;;;5031318;28;19958;-51
2023/12/07 12:05:03;;;;;;;;;;;;;;;;;;5031165;28;19933;-53
2023/12/07 12:07:29;;;;;;;;;;;;;;;;;;5012966;28;19921;-49
2023/12/07 12:09:55;;;;;;;;;;;;;;;;;;5031541;28;20295;-47
2023/12/07 12:12:21;;;;;;;;;;;;;;;;;;5030663;28;19986;-47
2023/12/07 12:14:47;;;;;;;;;;;;;;;;;;5013131;28;19928;-48
2023/12/07 12:17:13;;;;;;;;;;;;;;;;;;5030635;28;19905;-46
2023/12/07 12:19:39;;;;;;;;;;;;;;;;;;5030231;28;19912;-49
2023/12/07 12:22:06;;;;;;;;;;;;;;;;;;5030278;28;19952;-47
2023/12/07 12:24:32;;;;;;;;;;;;;;;;;;5034239;28;19932;-50
2023/12/07 12:26:57;;;;;;;;;;;;;;;;;;5047510;28;19904;-48
2023/12/07 12:29:23;;;;;;;;;;;;;;;;;;5049538;28;19904;-50
2023/12/07 12:31:49;;;;;;;;;;;;;;;;;;5049954;28;20271;-56
2023/12/07 12:34:17;;;;;;;;;;;;;;;;;;5050343;28;19905;-49
2023/12/07 12:36:43;;;;;;;;;;;;;;;;;;5050279;28;19905;-47
2023/12/07 12:39:09;;;;;;;;;;;;;;;;;;5050305;28;19905;-50
2023/12/07 12:41:35;;;;;;;;;;;;;;;;;;5049935;28;20387;-53
2023/12/07 12:44:01;;;;;;;;;;;;;;;;;;5050412;28;19973;-52
2023/12/07 12:46:27;;;;;;;;;;;;;;;;;;5032703;28;20346;-51
2023/12/07 12:48:53;;;;;;;;;;;;;;;;;;5049786;28;19904;-56
2023/12/07 12:51:19;;;;;;;;;;;;;;;;;;5049479;28;19917;-48
2023/12/07 12:53:46;;;;;;;;;;;;;;;;;;5050338;28;19904;-52
2023/12/07 12:56:12;;;;;;;;;;;;;;;;;;5038631;28;20299;-49
2023/12/07 12:58:38;;;;;;;;;;;;;;;;;;5030118;28;19932;-49
2023/12/07 13:01:04;;;;;;;;;;;;;;;;;;5012395;28;19912;-47
2023/12/07 13:03:31;;;;;;;;;;;;;;;;;;5030364;28;19991;-47
2023/12/07 13:05:57;;;;;;;;;;;;;;;;;;5030036;28;19997;-46
2023/12/07 13:08:23;;;;;;;;;;;;;;;;;;5030137;28;19941;-50
2023/12/07 13:10:49;;;;;;;;;;;;;;;;;;5029795;28;19995;-52
2023/12/07 13:13:15;;;;;;;;;;;;;;;;;;5030137;28;20271;-52
2023/12/07 13:15:41;;;;;;;;;;;;;;;;;;5012336;28;20008;-52
2023/12/07 13:18:07;;;;;;;;;;;;;;;;;;5012235;28;20031;-46
2023/12/07 13:20:34;;;;;;;;;;;;;;;;;;5029589;28;19966;-50
2023/12/07 13:23:00;;;;;;;;;;;;;;;;;;5031129;28;19912;-50
2023/12/07 13:25:27;;;;;;;;;;;;;;;;;;5043799;28;19904;-49
2023/12/07 13:27:53;;;;;;;;;;;;;;;;;;5046785;28;19909;-48
2023/12/07 13:30:18;;;;;;;;;;;;;;;;;;5049380;28;19974;-50
2023/12/07 13:32:44;;;;;;;;;;;;;;;;;;5049634;28;20392;-50
2023/12/07 13:35:10;;;;;;;;;;;;;;;;;;5049742;28;19970;-46
2023/12/07 13:37:36;;;;;;;;;;;;;;;;;;5032112;28;20319;-52
2023/12/07 13:40:03;;;;;;;;;;;;;;;;;;5049384;28;19908;-52
2023/12/07 13:42:29;;;;;;;;;;;;;;;;;;5049875;28;19925;-50
2023/12/07 13:44:57;;;;;;;;;;;;;;;;;;5049577;28;20282;-51
2023/12/07 13:47:26;;;;;;;;;;;;;;;;;;5043745;28;20001;-48
2023/12/07 13:49:52;;;;;;;;;;;;;;;;;;5043861;28;19917;-49
2023/12/07 13:52:18;;;;;;;;;;;;;;;;;;5048156;28;19908;-48
2023/12/07 13:54:43;;;;;;;;;;;;;;;;;;5049442;28;19904;-51
2023/12/07 13:57:10;;;;;;;;;;;;;;;;;;5029670;28;19915;-48
2023/12/07 13:59:37;;;;;;;;;;;;;;;;;;5028801;28;19912;-45
2023/12/07 14:02:02;;;;;;;;;;;;;;;;;;5028838;28;19958;-52
2023/12/07 14:04:28;;;;;;;;;;;;;;;;;;5032337;28;20011;-48
2023/12/07 14:06:54;;;;;;;;;;;;;;;;;;5033264;28;19908;-47
2023/12/07 14:09:20;;;;;;;;;;;;;;;;;;5015458;28;19909;-48
2023/12/07 14:11:46;;;;;;;;;;;;;;;;;;5032586;28;19923;-48
2023/12/07 14:14:13;;;;;;;;;;;;;;;;;;5032942;28;19916;-48
2023/12/07 14:16:39;;;;;;;;;;;;;;;;;;5032807;28;19911;-47
2023/12/07 14:19:05;;;;;;;;;;;;;;;;;;5014824;28;19905;-51
2023/12/07 14:21:31;;;;;;;;;;;;;;;;;;5032272;28;20391;-53
2023/12/07 14:23:58;;;;;;;;;;;;;;;;;;5032772;28;19905;-50
2023/12/07 14:26:24;;;;;;;;;;;;;;;;;;5015038;28;19909;-48
2023/12/07 14:28:50;;;;;;;;;;;;;;;;;;5048363;28;19931;-48
2023/12/07 14:31:16;;;;;;;;;;;;;;;;;;5051230;28;19908;-51
2023/12/07 14:33:42;;;;;;;;;;;;;;;;;;5052409;28;19962;-49
2023/12/07 14:36:08;;;;;;;;;;;;;;;;;;5052351;28;19908;-53
2023/12/07 14:38:34;;;;;;;;;;;;;;;;;;5052557;28;19920;-51
2023/12/07 14:41:00;;;;;;;;;;;;;;;;;;5052038;28;19905;-50
2023/12/07 14:43:26;;;;;;;;;;;;;;;;;;5052583;28;19941;-51
2023/12/07 14:45:52;;;;;;;;;;;;;;;;;;5051534;28;19965;-47
2023/12/07 14:48:18;;;;;;;;;;;;;;;;;;5052402;28;19916;-49
2023/12/07 14:50:44;;;;;;;;;;;;;;;;;;5051856;28;19908;-49
2023/12/07 14:53:10;;;;;;;;;;;;;;;;;;5034007;28;19952;-51
2023/12/07 14:55:36;;;;;;;;;;;;;;;;;;5045049;28;19927;-54
2023/12/07 14:58:02;;;;;;;;;;;;;;;;;;5031711;28;20366;-52
2023/12/07 15:00:28;;;;;;;;;;;;;;;;;;5031391;28;19905;-50
2023/12/07 15:02:54;;;;;;;;;;;;;;;;;;5031504;28;20394;-47
2023/12/07 15:05:21;;;;;;;;;;;;;;;;;;5032016;28;19905;-49
2023/12/07 15:07:47;;;;;;;;;;;;;;;;;;5031496;28;19932;-47
2023/12/07 15:10:13;;;;;;;;;;;;;;;;;;5051143;28;20002;-44
2023/12/07 15:12:39;;;;;;;;;;;;;;;;;;5051633;28;20293;-45
2023/12/07 15:15:06;;;;;;;;;;;;;;;;;;5048760;28;20259;-46
2023/12/07 15:17:32;;;;;;;;;;;;;;;;;;5052208;28;19905;-49
2023/12/07 15:19:58;;;;;;;;;;;;;;;;;;5043559;28;19951;-49
2023/12/07 15:22:24;;;;;;;;;;;;;;;;;;5052125;28;19908;-47
2023/12/07 15:24:50;;;;;;;;;;;;;;;;;;5051647;28;19904;-47
2023/12/07 15:27:16;;;;;;;;;;;;;;;;;;5033701;28;19923;-47
2023/12/07 15:29:42;;;;;;;;;;;;;;;;;;5050884;28;19912;-51
2023/12/07 15:32:08;;;;;;;;;;;;;;;;;;5051472;28;19999;-48
2023/12/07 15:34:35;;;;;;;;;;;;;;;;;;5033124;28;19951;-51
2023/12/07 15:37:01;;;;;;;;;;;;;;;;;;5050897;28;19959;-48
2023/12/07 15:39:26;;;;;;;;;;;;;;;;;;5033377;28;20004;-47
2023/12/07 15:41:52;;;;;;;;;;;;;;;;;;5051034;28;19987;-49
2023/12/07 15:44:18;;;;;;;;;;;;;;;;;;5051518;28;19909;-48
2023/12/07 15:46:44;;;;;;;;;;;;;;;;;;5051494;28;20358;-49
2023/12/07 15:49:10;;;;;;;;;;;;;;;;;;5051044;28;19909;-54
2023/12/07 15:51:36;;;;;;;;;;;;;;;;;;5050956;28;20298;-47
2023/12/07 15:54:02;;;;;;;;;;;;;;;;;;5050736;28;19974;-51
2023/12/07 15:56:28;;;;;;;;;;;;;;;;;;5051285;28;20346;-51
2023/12/07 15:58:54;;;;;;;;;;;;;;;;;;5050995;28;19944;-51
2023/12/07 16:01:20;;;;;;;;;;;;;;;;;;5049886;28;19987;-53
2023/12/07 16:03:46;;;;;;;;;;;;;;;;;;5047725;28;19959;-49
2023/12/07 16:06:12;;;;;;;;;;;;;;;;;;5033638;28;19917;-47
2023/12/07 16:08:38;;;;;;;;;;;;;;;;;;5030980;28;19999;-49
2023/12/07 16:11:05;;;;;;;;;;;;;;;;;;5030552;28;19925;-49
2023/12/07 16:13:31;;;;;;;;;;;;;;;;;;5030671;28;19912;-50
2023/12/07 16:15:57;;;;;;;;;;;;;;;;;;5030204;28;19980;-50
2023/12/07 16:18:23;;;;;;;;;;;;;;;;;;5012181;28;19905;-47
2023/12/07 16:20:49;;;;;;;;;;;;;;;;;;5030162;28;20324;-49
2023/12/07 16:23:14;;;;;;;;;;;;;;;;;;5030574;28;19913;-52
2023/12/07 16:25:40;;;;;;;;;;;;;;;;;;5030600;28;19905;-54
2023/12/07 16:28:06;;;;;;;;;;;;;;;;;;5030469;28;19905;-50
2023/12/07 16:30:32;;;;;;;;;;;;;;;;;;5030200;28;19909;-51
2023/12/07 16:32:58;;;;;;;;;;;;;;;;;;5030772;28;19951;-53
2023/12/07 16:35:24;;;;;;;;;;;;;;;;;;5030683;28;19909;-49
2023/12/07 16:37:50;;;;;;;;;;;;;;;;;;5030263;28;19920;-49